Terminal Aerodrome Forecast
Issued by NWS

Home | Current Version | Previous Version | Text Only | Print | Product List | Glossary On
Versions: 1 2 3 4 5 6 7 8 9 10 11 12 13 14 15 16 17 18 19 20 21 22 23 24 25 26 27 28 29
000
FTUS44 KHGX 261120
TAFLBX
TAF
KLBX 261120Z 2612/2712 18008KT P6SM BKN010
     FM261400 15008KT P6SM BKN015
     FM261600 17013KT P6SM SCT020 BKN035
     FM261800 18013G23KT P6SM BKN035
     FM262100 17018KT P6SM OVC025
     FM270200 16010KT P6SM OVC015
     FM270800 18008KT 6SM BR SCT007 OVC010=

USA.gov is the U.S. government's official web portal to all federal, state and local government web resources and services.